Time;durP1;ratioP1;P1;durP2;ratioP2;P2;SDS_P1;SDS_P2;PMS_P1;PMS_P2;Temp;Humidity;BMP_temperature;BMP_pressure;BME280_temperature;BME280_humidity;BME280_pressure;Samples;Min_cycle;Max_cycle;Signal;HPM_P1;HPM_P2
2021/12/19 09:41:27;;;;;;;18.17;10.48;;;;;;;4.26;100.00;98529.43;2241248;79;22204;-87
2021/12/19 09:44:20;;;;;;;14.28;8.73;;;;;;;4.29;100.00;98525.72;2202727;80;21021;-83
2021/12/19 09:47:21;;;;;;;12.07;6.80;;;;;;;4.43;100.00;98529.63;2198765;80;21044;-86
2021/12/19 09:50:22;;;;;;;10.78;6.70;;;;;;;4.56;100.00;98521.00;2196461;80;21509;-86
2021/12/19 09:53:22;;;;;;;9.18;6.75;;;;;;;4.69;100.00;98525.86;2194381;80;20980;-86
2021/12/19 09:56:23;;;;;;;11.18;7.20;;;;;;;4.84;100.00;98520.48;2213745;80;21072;-84
2021/12/19 09:59:24;;;;;;;12.55;7.62;;;;;;;4.93;100.00;98520.89;2209066;80;21025;-93
2021/12/19 10:02:25;;;;;;;13.40;8.63;;;;;;;5.02;100.00;98512.21;2197482;80;21604;-90
2021/12/19 10:05:26;;;;;;;11.43;6.70;;;;;;;5.08;100.00;98505.62;2205738;80;21015;-91
2021/12/19 10:08:27;;;;;;;9.43;4.87;;;;;;;5.12;100.00;98505.64;2197547;80;21064;-92
2021/12/19 10:11:58;;;;;;;6.47;5.42;;;;;;;5.14;100.00;98503.73;2192310;80;21084;-95
2021/12/19 10:14:38;;;;;;;5.20;3.62;;;;;;;5.19;100.00;98490.29;2187577;80;21070;-91
2021/12/19 10:17:38;;;;;;;6.78;4.25;;;;;;;5.19;100.00;98495.00;2201676;80;21066;-89
2021/12/19 10:20:42;;;;;;;4.97;3.50;;;;;;;5.17;100.00;98473.57;2211055;80;20994;-89
2021/12/19 10:23:46;;;;;;;8.88;5.70;;;;;;;5.17;100.00;98480.06;2201539;80;21049;-92
2021/12/19 10:26:49;;;;;;;6.15;5.17;;;;;;;5.22;100.00;98486.11;2200460;80;21110;-89
2021/12/19 10:29:50;;;;;;;7.47;4.65;;;;;;;5.22;100.00;98473.14;2204200;80;20998;-89
2021/12/19 10:32:51;;;;;;;7.75;5.03;;;;;;;5.26;100.00;98477.86;2200325;80;21001;-92
2021/12/19 10:35:54;;;;;;;6.50;4.35;;;;;;;5.31;100.00;98462.66;2187461;80;21032;-88
2021/12/19 10:38:56;;;;;;;6.62;4.37;;;;;;;5.32;100.00;98464.28;2198845;80;21106;-88
2021/12/19 10:41:57;;;;;;;7.78;5.22;;;;;;;5.31;100.00;98470.93;2205889;80;22089;-89
2021/12/19 10:48:20;;;;;;;10.45;5.35;;;;;;;5.33;100.00;98448.22;2202058;80;21099;-90
2021/12/19 10:51:20;;;;;;;8.75;4.78;;;;;;;5.41;100.00;98440.48;2208752;80;21082;-89
2021/12/19 10:54:21;;;;;;;7.65;4.40;;;;;;;5.42;100.00;98436.44;2203076;80;20998;-88
2021/12/19 10:57:22;;;;;;;7.15;4.60;;;;;;;5.39;100.00;98419.03;2198904;80;21089;-88
2021/12/19 11:00:23;;;;;;;5.15;4.42;;;;;;;5.35;100.00;98419.83;2207430;80;21048;-87
2021/12/19 11:03:26;;;;;;;4.20;3.80;;;;;;;5.34;100.00;98399.22;2209926;81;21525;-86
2021/12/19 17:59:34;;;;;;;11.57;6.50;;;;;;;1.30;100.00;98159.98;2236812;79;22606;-86
2021/12/19 18:02:35;;;;;;;15.72;8.65;;;;;;;1.20;100.00;98157.41;2187795;81;21085;-84
2021/12/19 18:05:36;;;;;;;13.15;7.85;;;;;;;1.20;100.00;98157.41;2188750;81;20961;-84
2021/12/19 18:08:37;;;;;;;9.25;4.90;;;;;;;1.21;100.00;98140.97;2187744;81;21061;-86
2021/12/19 18:11:38;;;;;;;15.48;7.58;;;;;;;1.25;100.00;98133.77;2187642;81;21005;-85
2021/12/19 18:17:45;;;;;;;8.28;4.85;;;;;;;1.28;100.00;98152.84;2099841;85;21116;-83
2021/12/19 18:24:00;;;;;;;7.80;3.95;;;;;;;1.36;100.00;98160.72;2263676;78;24071;-85
2021/12/19 18:27:02;;;;;;;7.00;4.90;;;;;;;1.32;100.00;98158.08;2180344;82;21093;-84
2021/12/19 18:30:03;;;;;;;3.47;2.95;;;;;;;1.32;100.00;98153.73;2226902;80;21563;-86
2021/12/19 18:33:04;;;;;;;4.35;3.72;;;;;;;1.31;100.00;98162.43;2184025;81;20981;-84
2021/12/19 18:36:12;;;;;;;9.43;4.97;;;;;;;1.31;100.00;98160.33;2183301;81;22111;-89
2021/12/19 18:39:08;;;;;;;5.05;3.95;;;;;;;1.30;100.00;98171.13;2183263;81;21160;-84
2021/12/19 18:42:18;;;;;;;7.78;4.62;;;;;;;1.30;100.00;98172.89;2227263;80;21072;-83
2021/12/19 18:45:34;;;;;;;12.40;5.85;;;;;;;1.32;100.00;98174.84;2181805;81;21032;-83
2021/12/19 18:48:30;;;;;;;16.15;7.67;;;;;;;1.34;100.00;98172.47;2217272;80;21062;-90
2021/12/19 18:51:51;;;;;;;20.15;7.70;;;;;;;1.35;100.00;98176.67;2224253;80;21128;-91
2021/12/19 18:54:47;;;;;;;24.43;8.65;;;;;;;1.39;100.00;98179.82;2170424;81;21016;-88
2021/12/19 18:57:43;;;;;;;31.77;10.23;;;;;;;1.42;100.00;98171.33;2182464;81;21484;-91
2021/12/19 19:00:49;;;;;;;18.07;7.67;;;;;;;1.46;100.00;98188.63;2183816;81;21401;-88
2021/12/19 19:06:52;;;;;;;22.87;9.98;;;;;;;1.51;100.00;98190.34;2184350;81;21028;-95
2021/12/19 19:09:54;;;;;;;15.53;8.45;;;;;;;1.54;100.00;98193.93;2184404;81;21620;-88
2021/12/19 19:12:54;;;;;;;14.53;7.12;;;;;;;1.56;100.00;98199.80;2227216;80;21033;-89
2021/12/19 19:15:55;;;;;;;10.08;6.12;;;;;;;1.57;100.00;98202.72;2227714;80;21008;-88
2021/12/19 19:18:56;;;;;;;12.88;6.33;;;;;;;1.60;100.00;98202.91;2227715;80;20962;-88
2021/12/19 19:21:57;;;;;;;11.22;5.58;;;;;;;1.59;100.00;98208.55;2227483;80;21009;-86
2021/12/19 19:24:59;;;;;;;7.00;4.78;;;;;;;1.59;100.00;98223.22;2227649;80;20996;-91
2021/12/19 19:28:00;;;;;;;6.45;5.45;;;;;;;1.57;100.00;98219.97;2184106;81;21535;-88
2021/12/19 19:31:01;;;;;;;8.43;5.35;;;;;;;1.56;100.00;98230.77;2227250;80;21123;-88
2021/12/19 19:34:02;;;;;;;9.50;5.10;;;;;;;1.56;100.00;98225.60;2226716;80;21428;-87
